createdAt,value
2023-02-14T00:00:45.132Z,10.70
2023-02-14T00:03:33.144Z,9.43
2023-02-14T00:06:19.682Z,9.60
2023-02-14T00:09:09.040Z,10.17
2023-02-14T00:11:55.470Z,9.60
2023-02-14T00:15:01.357Z,10.03
2023-02-14T00:17:48.050Z,9.50
2023-02-14T00:20:37.018Z,9.43
2023-02-14T00:23:31.114Z,9.83
2023-02-14T00:26:17.797Z,9.77
2023-02-14T00:29:04.180Z,9.10
2023-02-14T00:31:50.682Z,10.43
2023-02-14T00:34:38.593Z,10.13
2023-02-14T00:37:27.686Z,9.60
2023-02-14T00:40:15.899Z,9.80
2023-02-14T00:43:05.696Z,10.43
2023-02-14T00:45:52.378Z,10.83
2023-02-14T00:48:38.930Z,10.27
2023-02-14T00:51:25.961Z,10.50
2023-02-14T00:54:13.568Z,11.53
2023-02-14T00:57:00.314Z,10.70
2023-02-14T00:59:47.175Z,11.47
2023-02-14T01:02:33.586Z,10.90
2023-02-14T01:05:20.120Z,11.20
2023-02-14T01:08:06.851Z,11.30
2023-02-14T01:10:54.855Z,12.20
2023-02-14T01:13:42.300Z,11.00
2023-02-14T01:16:29.990Z,10.73
2023-02-14T01:19:16.720Z,11.90
2023-02-14T01:22:03.087Z,12.03
2023-02-14T01:24:49.498Z,11.77
2023-02-14T01:27:37.345Z,12.17
2023-02-14T01:30:24.000Z,12.20
2023-02-14T01:33:10.754Z,12.67
2023-02-14T01:35:58.300Z,12.20
2023-02-14T01:38:44.936Z,11.97
2023-02-14T01:41:33.612Z,12.20
2023-02-14T01:44:57.261Z,11.43
2023-02-14T01:47:45.674Z,11.37
2023-02-14T01:50:37.491Z,11.33
2023-02-14T01:53:29.146Z,10.90
2023-02-14T01:56:20.936Z,10.90
2023-02-14T01:59:11.637Z,11.47
2023-02-14T02:02:00.351Z,10.93
2023-02-14T02:04:47.738Z,10.57
2023-02-14T02:07:34.310Z,11.77
2023-02-14T02:10:21.448Z,11.83
2023-02-14T02:13:09.751Z,11.17
2023-02-14T02:16:13.943Z,12.90
2023-02-14T02:19:18.394Z,12.27
2023-02-14T02:22:36.024Z,11.80
2023-02-14T02:25:44.793Z,11.30
2023-02-14T02:28:56.231Z,11.97
2023-02-14T02:32:18.496Z,12.47
2023-02-14T02:35:20.437Z,11.67
2023-02-14T02:38:26.714Z,11.37
2023-02-14T02:41:27.190Z,12.07
2023-02-14T02:44:19.312Z,11.80
2023-02-14T02:47:10.208Z,12.97
2023-02-14T02:50:21.421Z,12.13
2023-02-14T02:53:17.688Z,12.20
2023-02-14T02:56:27.667Z,12.63
2023-02-14T02:59:19.196Z,12.63
2023-02-14T03:02:20.499Z,11.80
2023-02-14T03:05:07.350Z,11.73
2023-02-14T03:07:53.883Z,11.77
2023-02-14T03:10:41.811Z,12.40
2023-02-14T03:13:56.796Z,12.83
2023-02-14T03:16:54.973Z,11.87
2023-02-14T03:20:11.878Z,12.50
2023-02-14T03:23:05.125Z,13.87
2023-02-14T03:26:03.638Z,12.30
2023-02-14T03:28:59.120Z,12.30
2023-02-14T03:31:55.997Z,11.80
2023-02-14T03:34:52.676Z,12.47
2023-02-14T03:37:45.854Z,13.43
2023-02-14T03:40:37.360Z,12.63
2023-02-14T03:43:29.466Z,13.13
2023-02-14T03:46:21.149Z,13.33
2023-02-14T03:49:11.623Z,12.63
2023-02-14T03:52:01.224Z,12.20
2023-02-14T03:54:52.325Z,11.53
2023-02-14T03:57:48.073Z,11.77
2023-02-14T04:00:39.432Z,12.80
2023-02-14T04:03:28.382Z,13.10
2023-02-14T04:06:15.168Z,11.33
2023-02-14T04:09:01.401Z,12.43
2023-02-14T04:11:50.373Z,12.93
2023-02-14T04:14:37.192Z,12.27
2023-02-14T04:17:42.283Z,13.60
2023-02-14T04:20:29.252Z,13.50
2023-02-14T04:23:15.572Z,13.27
2023-02-14T04:26:03.641Z,12.97
2023-02-14T04:28:50.182Z,14.40
2023-02-14T04:31:36.680Z,14.00
2023-02-14T04:34:24.929Z,13.23
2023-02-14T04:37:11.903Z,12.00
2023-02-14T04:39:58.280Z,12.57
2023-02-14T04:42:44.659Z,12.97
2023-02-14T04:45:31.211Z,15.90
2023-02-14T04:48:17.544Z,13.83
2023-02-14T04:51:06.788Z,14.17
2023-02-14T04:53:53.205Z,25.07
2023-02-14T04:56:39.747Z,24.53
2023-02-14T04:59:26.690Z,14.57
2023-02-14T05:02:13.068Z,13.00
2023-02-14T05:04:59.416Z,13.17
2023-02-14T05:07:47.825Z,13.37
2023-02-14T05:10:34.609Z,13.63
2023-02-14T05:13:20.859Z,13.87
2023-02-14T05:16:07.697Z,15.20
2023-02-14T05:18:55.170Z,23.87
2023-02-14T05:21:41.608Z,13.83
2023-02-14T05:24:29.304Z,12.90
2023-02-14T05:27:15.960Z,12.23
2023-02-14T05:30:02.464Z,11.00
2023-02-14T05:32:48.808Z,12.50
2023-02-14T05:35:35.566Z,12.23
2023-02-14T05:38:22.375Z,11.87
2023-02-14T05:41:10.056Z,11.47
2023-02-14T05:43:56.852Z,11.33
2023-02-14T05:46:43.419Z,10.93
2023-02-14T05:49:29.741Z,11.33
2023-02-14T05:52:15.933Z,10.40
2023-02-14T05:55:02.377Z,11.23
2023-02-14T05:57:49.952Z,14.47
2023-02-14T06:00:38.388Z,28.83
2023-02-14T06:03:26.383Z,11.87
2023-02-14T06:06:12.999Z,11.77
2023-02-14T06:08:59.355Z,11.47
2023-02-14T06:11:45.892Z,11.87
2023-02-14T06:14:33.739Z,10.70
2023-02-14T06:17:20.068Z,11.77
2023-02-14T06:20:09.491Z,11.77
2023-02-14T06:22:56.230Z,11.37
2023-02-14T06:25:42.790Z,23.23
2023-02-14T06:28:29.060Z,14.43
2023-02-14T06:31:20.034Z,11.90
2023-02-14T06:34:06.850Z,13.07
2023-02-14T06:36:53.104Z,14.63
2023-02-14T06:39:39.476Z,15.40
2023-02-14T06:42:26.151Z,13.93
2023-02-14T06:45:12.754Z,12.53
2023-02-14T06:48:00.993Z,12.57
2023-02-14T06:50:47.884Z,14.63
2023-02-14T06:53:34.386Z,14.80
2023-02-14T06:56:21.086Z,11.93
2023-02-14T06:59:07.533Z,13.17
2023-02-14T07:01:53.995Z,11.63
2023-02-14T07:04:42.124Z,11.53
2023-02-14T07:07:28.672Z,11.37
2023-02-14T07:10:15.285Z,10.83
2023-02-14T07:13:01.785Z,10.07
2023-02-14T07:15:49.045Z,10.27
2023-02-14T07:18:35.240Z,9.77
2023-02-14T07:21:22.984Z,9.70
2023-02-14T07:24:09.609Z,12.77
2023-02-14T07:26:56.140Z,20.83
2023-02-14T07:29:42.535Z,10.20
2023-02-14T07:32:29.045Z,11.67
2023-02-14T07:35:15.725Z,10.20
2023-02-14T07:38:03.411Z,10.37
2023-02-14T07:40:50.125Z,9.80
2023-02-14T07:43:36.470Z,9.33
2023-02-14T07:46:22.905Z,9.10
2023-02-14T07:49:09.731Z,9.90
2023-02-14T07:51:56.090Z,8.37
2023-02-14T07:54:44.022Z,8.80
2023-02-14T07:57:30.781Z,9.07
2023-02-14T08:00:18.026Z,8.53
2023-02-14T08:03:04.476Z,8.53
2023-02-14T08:05:57.288Z,17.93
2023-02-14T08:08:43.928Z,11.03
2023-02-14T08:11:49.279Z,7.80
2023-02-14T08:14:35.822Z,7.67
2023-02-14T08:17:22.231Z,8.07
2023-02-14T08:20:09.185Z,8.27
2023-02-14T08:22:55.616Z,8.47
2023-02-14T08:25:42.090Z,8.23
2023-02-14T08:28:32.315Z,8.50
2023-02-14T08:31:34.416Z,8.20
2023-02-14T08:34:21.748Z,7.43
2023-02-14T08:37:08.089Z,7.70
2023-02-14T08:39:54.539Z,7.00
2023-02-14T08:42:40.853Z,7.00
2023-02-14T08:45:28.690Z,7.93
2023-02-14T08:48:15.021Z,7.27
2023-02-14T08:51:05.156Z,7.13
2023-02-14T08:53:53.076Z,7.03
2023-02-14T08:56:40.627Z,7.13
2023-02-14T08:59:27.402Z,7.27
2023-02-14T09:02:16.171Z,7.07
2023-02-14T09:05:02.504Z,7.07
2023-02-14T09:07:49.009Z,7.90
2023-02-14T09:10:35.384Z,7.93
2023-02-14T09:13:21.676Z,7.47
2023-02-14T09:16:10.237Z,7.93
2023-02-14T09:18:58.059Z,8.10
2023-02-14T09:21:44.742Z,7.90
2023-02-14T09:24:31.648Z,7.23
2023-02-14T09:27:18.030Z,8.80
2023-02-14T09:30:05.757Z,17.67
2023-02-14T09:32:53.631Z,9.20
2023-02-14T09:35:41.757Z,8.47
2023-02-14T09:38:28.450Z,8.00
2023-02-14T09:41:41.714Z,7.87
2023-02-14T09:44:35.378Z,9.33
2023-02-14T09:47:29.597Z,9.00
2023-02-14T09:50:23.215Z,7.90
2023-02-14T09:53:21.613Z,8.03
2023-02-14T09:56:15.174Z,16.00
2023-02-14T09:59:08.913Z,8.53
2023-02-14T10:02:02.674Z,8.87
2023-02-14T10:04:58.860Z,7.97
2023-02-14T10:07:57.360Z,8.60
2023-02-14T10:10:48.391Z,9.50
2023-02-14T10:13:40.161Z,9.67
2023-02-14T10:16:31.131Z,9.53
2023-02-14T10:19:22.567Z,9.07
2023-02-14T10:22:14.766Z,9.93
2023-02-14T10:25:05.026Z,9.73
2023-02-14T10:27:56.600Z,10.20
2023-02-14T10:30:50.881Z,10.67
2023-02-14T10:33:39.669Z,11.23
2023-02-14T10:36:51.528Z,11.07
2023-02-14T10:39:57.535Z,10.70
2023-02-14T10:42:50.646Z,11.80
2023-02-14T10:45:42.974Z,10.80
2023-02-14T10:48:38.748Z,11.23
2023-02-14T10:51:33.863Z,11.37
2023-02-14T10:54:23.479Z,11.40
2023-02-14T10:57:16.555Z,11.77
2023-02-14T11:00:06.602Z,13.50
2023-02-14T11:02:58.891Z,11.10
2023-02-14T11:05:47.617Z,9.77
2023-02-14T11:08:35.942Z,10.10
2023-02-14T11:11:27.135Z,10.13
2023-02-14T11:17:29.586Z,10.80
2023-02-14T11:20:27.843Z,11.20
2023-02-14T11:23:22.185Z,10.47
2023-02-14T11:26:15.415Z,11.77
2023-02-14T11:29:05.013Z,11.37
2023-02-14T11:31:51.845Z,11.70
2023-02-14T11:34:40.945Z,11.63
2023-02-14T11:37:31.418Z,11.50
2023-02-14T11:40:28.189Z,11.07
2023-02-14T11:43:31.842Z,11.27
2023-02-14T11:46:27.977Z,10.83
2023-02-14T11:49:28.370Z,10.80
2023-02-14T11:52:19.551Z,10.83
2023-02-14T11:55:08.110Z,10.37
2023-02-14T11:57:56.085Z,10.97
2023-02-14T12:00:51.810Z,12.03
2023-02-14T12:03:44.881Z,11.90
2023-02-14T12:06:34.671Z,11.77
2023-02-14T12:09:30.223Z,10.93
2023-02-14T12:12:20.763Z,11.77
2023-02-14T12:15:41.252Z,11.53
2023-02-14T12:18:50.088Z,13.10
2023-02-14T12:21:48.978Z,12.20
2023-02-14T12:24:39.323Z,11.53
2023-02-14T12:27:33.667Z,11.40
2023-02-14T12:30:24.497Z,11.97
2023-02-14T12:33:18.738Z,12.20
2023-02-14T12:36:11.499Z,13.37
2023-02-14T12:39:08.523Z,12.77
2023-02-14T12:42:06.873Z,12.00
2023-02-14T12:45:03.801Z,12.70
2023-02-14T12:48:01.789Z,12.47
2023-02-14T12:50:55.516Z,12.53
2023-02-14T12:54:08.584Z,13.23
2023-02-14T12:57:05.767Z,12.73
2023-02-14T13:00:03.782Z,12.40
2023-02-14T13:03:11.476Z,11.73
2023-02-14T13:06:05.071Z,13.67
2023-02-14T13:09:10.285Z,12.60
2023-02-14T13:12:07.157Z,12.10
2023-02-14T13:15:03.980Z,12.30
2023-02-14T13:17:54.108Z,12.63
2023-02-14T13:20:57.992Z,12.83
2023-02-14T13:23:48.035Z,12.33
2023-02-14T13:26:38.964Z,12.30
2023-02-14T13:29:29.479Z,12.40
2023-02-14T13:32:22.684Z,12.90
2023-02-14T13:35:16.331Z,12.30
2023-02-14T13:38:07.593Z,13.13
2023-02-14T13:40:55.459Z,12.67
2023-02-14T13:44:05.304Z,13.23
2023-02-14T13:46:53.189Z,12.17
2023-02-14T13:49:49.256Z,13.50
2023-02-14T13:52:47.160Z,12.67
2023-02-14T13:55:37.439Z,12.87
2023-02-14T13:58:25.756Z,13.17
2023-02-14T14:01:31.858Z,12.60
2023-02-14T14:04:38.633Z,13.10
2023-02-14T14:07:30.708Z,13.20
2023-02-14T14:10:44.654Z,13.80
2023-02-14T14:13:57.619Z,12.57
2023-02-14T14:16:58.179Z,12.67
2023-02-14T14:19:47.155Z,13.30
2023-02-14T14:22:48.170Z,12.80
2023-02-14T14:25:37.242Z,13.10
2023-02-14T14:28:27.268Z,12.73
2023-02-14T14:31:15.038Z,12.70
2023-02-14T14:34:02.556Z,12.57
2023-02-14T14:36:49.225Z,14.53
2023-02-14T14:39:39.822Z,12.70
2023-02-14T14:42:30.494Z,13.07
2023-02-14T14:45:23.809Z,12.93
2023-02-14T14:48:13.664Z,12.10
2023-02-14T14:51:01.181Z,12.60
2023-02-14T14:53:51.482Z,14.10
2023-02-14T14:56:47.622Z,14.60
2023-02-14T14:59:36.156Z,12.70
2023-02-14T15:02:26.320Z,14.83
2023-02-14T15:05:25.934Z,14.87
2023-02-14T15:08:23.052Z,16.00
2023-02-14T15:11:34.084Z,16.37
2023-02-14T15:14:23.575Z,15.73
2023-02-14T15:17:19.418Z,15.33
2023-02-14T15:20:10.340Z,15.13
2023-02-14T15:22:57.774Z,15.17
2023-02-14T15:25:45.742Z,15.47
2023-02-14T15:28:35.264Z,15.23
2023-02-14T15:31:23.492Z,15.80
2023-02-14T15:34:12.083Z,15.90
2023-02-14T15:37:03.809Z,15.73
2023-02-14T15:39:53.309Z,14.77
2023-02-14T15:42:44.576Z,15.33
2023-02-14T15:45:31.895Z,15.53
2023-02-14T15:48:23.968Z,14.87
2023-02-14T15:51:17.720Z,14.97
2023-02-14T15:54:07.548Z,15.40
2023-02-14T15:56:56.638Z,15.30
2023-02-14T15:59:43.908Z,16.00
2023-02-14T16:02:36.133Z,13.53
2023-02-14T16:05:26.920Z,13.73
2023-02-14T16:08:34.059Z,13.63
2023-02-14T16:11:29.760Z,13.73
2023-02-14T16:14:31.296Z,14.27
2023-02-14T16:17:33.252Z,14.00
2023-02-14T16:20:23.770Z,14.70
2023-02-14T16:23:23.525Z,13.53
2023-02-14T16:26:10.268Z,15.23
2023-02-14T16:28:56.743Z,14.73
2023-02-14T16:32:06.212Z,14.63
2023-02-14T16:34:52.504Z,15.10
2023-02-14T16:37:40.322Z,15.23
2023-02-14T16:40:28.945Z,14.53
2023-02-14T16:43:16.839Z,15.23
2023-02-14T16:46:03.626Z,14.67
2023-02-14T16:48:52.017Z,15.33
2023-02-14T16:51:38.626Z,15.40
2023-02-14T16:54:28.745Z,16.73
2023-02-14T16:57:21.309Z,16.10
2023-02-14T17:00:09.567Z,15.80
2023-02-14T17:03:04.448Z,15.93
2023-02-14T17:05:51.276Z,16.37
2023-02-14T17:08:39.725Z,16.47
2023-02-14T17:11:29.085Z,15.60
2023-02-14T17:14:20.753Z,15.63
2023-02-14T17:17:07.825Z,15.93
2023-02-14T17:19:54.727Z,15.40
2023-02-14T17:22:43.206Z,15.90
2023-02-14T17:25:30.180Z,15.77
2023-02-14T17:28:18.156Z,16.70
2023-02-14T17:31:05.366Z,15.77
2023-02-14T17:33:52.201Z,17.07
2023-02-14T17:36:39.247Z,16.53
2023-02-14T17:39:25.925Z,16.50
2023-02-14T17:42:12.449Z,16.50
2023-02-14T17:45:00.687Z,16.80
2023-02-14T17:47:48.354Z,15.20
2023-02-14T17:50:34.799Z,15.80
2023-02-14T17:53:21.177Z,16.57
2023-02-14T17:56:08.664Z,16.47
2023-02-14T17:58:56.157Z,16.73
2023-02-14T18:01:44.168Z,17.33
2023-02-14T18:04:31.036Z,16.27
2023-02-14T18:07:17.794Z,16.27
2023-02-14T18:10:06.458Z,16.43
2023-02-14T18:12:52.989Z,16.83
2023-02-14T18:15:39.974Z,16.20
2023-02-14T18:18:27.577Z,16.77
2023-02-14T18:21:15.886Z,16.33
2023-02-14T18:24:02.400Z,18.47
2023-02-14T18:26:48.979Z,16.43
2023-02-14T18:29:36.307Z,16.77
2023-02-14T18:32:23.096Z,16.40
2023-02-14T18:35:11.083Z,16.83
2023-02-14T18:37:57.443Z,16.57
2023-02-14T18:40:43.924Z,16.73
2023-02-14T18:43:30.566Z,16.27
2023-02-14T18:46:18.797Z,16.47
2023-02-14T18:49:08.259Z,18.17
2023-02-14T18:51:57.283Z,17.73
2023-02-14T18:54:43.728Z,17.80
2023-02-14T18:57:30.357Z,18.13
2023-02-14T19:00:17.469Z,19.20
2023-02-14T19:03:04.038Z,17.63
2023-02-14T19:05:50.350Z,17.53
2023-02-14T19:08:40.550Z,17.33
2023-02-14T19:11:31.299Z,18.47
2023-02-14T19:14:19.370Z,16.87
2023-02-14T19:17:06.643Z,18.17
2023-02-14T19:19:53.191Z,17.23
2023-02-14T19:22:40.969Z,17.50
2023-02-14T19:25:32.447Z,17.63
2023-02-14T19:28:18.813Z,18.10
2023-02-14T19:31:05.285Z,18.10
2023-02-14T19:33:51.824Z,18.20
2023-02-14T19:36:38.156Z,17.10
2023-02-14T19:39:24.635Z,19.33
2023-02-14T19:42:12.628Z,18.77
2023-02-14T19:44:59.394Z,18.50
2023-02-14T19:47:47.307Z,19.70
2023-02-14T19:50:33.913Z,18.83
2023-02-14T19:53:20.512Z,18.80
2023-02-14T19:56:06.902Z,18.57
2023-02-14T19:58:56.055Z,18.50
2023-02-14T20:01:46.458Z,18.00
2023-02-14T20:04:33.764Z,19.73
2023-02-14T20:07:21.026Z,19.07
2023-02-14T20:10:09.216Z,19.67
2023-02-14T20:12:56.515Z,19.87
2023-02-14T20:15:45.748Z,18.53
2023-02-14T20:18:35.777Z,20.20
2023-02-14T20:21:28.263Z,18.33
2023-02-14T20:24:17.914Z,22.83
2023-02-14T20:27:05.685Z,20.43
2023-02-14T20:29:54.000Z,20.63
2023-02-14T20:32:42.671Z,20.30
2023-02-14T20:35:34.179Z,21.98
2023-02-14T20:38:21.413Z,18.50
2023-02-14T20:41:09.820Z,19.60
2023-02-14T20:44:04.248Z,20.27
2023-02-14T20:47:12.158Z,20.67
2023-02-14T20:50:01.133Z,18.17
2023-02-14T20:52:48.461Z,19.73
2023-02-14T20:55:35.482Z,21.67
2023-02-14T20:58:21.914Z,19.63
2023-02-14T21:01:09.367Z,19.97
2023-02-14T21:03:57.114Z,19.40
2023-02-14T21:06:45.007Z,19.73
2023-02-14T21:09:32.905Z,20.80
2023-02-14T21:12:19.416Z,20.83
2023-02-14T21:15:06.869Z,20.33
2023-02-14T21:17:53.274Z,21.60
2023-02-14T21:20:39.675Z,20.77
2023-02-14T21:23:27.616Z,19.40
2023-02-14T21:26:14.146Z,19.97
2023-02-14T21:29:00.590Z,21.20
2023-02-14T21:31:47.054Z,22.10
2023-02-14T21:34:34.257Z,20.30
2023-02-14T21:37:21.157Z,21.60
2023-02-14T21:40:10.222Z,20.83
2023-02-14T21:42:57.327Z,24.20
2023-02-14T21:45:54.980Z,21.50
2023-02-14T21:48:59.624Z,19.97
2023-02-14T21:51:46.664Z,20.53
2023-02-14T21:54:33.344Z,20.90
2023-02-14T21:57:21.193Z,21.60
2023-02-14T22:00:08.959Z,23.50
2023-02-14T22:02:55.400Z,21.23
2023-02-14T22:05:41.593Z,21.17
2023-02-14T22:08:28.005Z,21.43
2023-02-14T22:11:16.326Z,21.27
2023-02-14T22:14:04.439Z,19.60
2023-02-14T22:16:51.151Z,22.93
2023-02-14T22:19:37.432Z,21.97
2023-02-14T22:22:23.844Z,22.60
2023-02-14T22:25:10.204Z,22.27
2023-02-14T22:27:56.804Z,22.73
2023-02-14T22:30:44.777Z,23.70
2023-02-14T22:33:31.793Z,23.93
2023-02-14T22:36:18.964Z,24.10
2023-02-14T22:39:05.945Z,23.83
2023-02-14T22:41:52.359Z,24.07
2023-02-14T22:44:38.849Z,23.30
2023-02-14T22:47:26.624Z,22.53
2023-02-14T22:50:13.288Z,23.87
2023-02-14T22:52:59.908Z,23.70
2023-02-14T22:55:46.272Z,24.27
2023-02-14T22:58:32.715Z,24.37
2023-02-14T23:01:21.493Z,23.23
2023-02-14T23:04:09.578Z,22.77
2023-02-14T23:06:56.664Z,23.40
2023-02-14T23:09:43.334Z,22.80
2023-02-14T23:12:47.283Z,21.90
2023-02-14T23:15:51.119Z,21.60
2023-02-14T23:18:55.158Z,24.03
2023-02-14T23:21:55.589Z,22.57
2023-02-14T23:24:42.578Z,23.57
2023-02-14T23:27:32.517Z,21.83
2023-02-14T23:30:20.178Z,23.17
2023-02-14T23:33:06.830Z,27.47
2023-02-14T23:35:56.020Z,23.33
2023-02-14T23:38:43.701Z,23.93
2023-02-14T23:41:48.348Z,23.17
2023-02-14T23:44:35.735Z,22.67
2023-02-14T23:47:22.333Z,21.90
2023-02-14T23:50:09.385Z,22.50
2023-02-14T23:52:55.825Z,22.13
2023-02-14T23:55:43.555Z,21.80
2023-02-14T23:58:30.481Z,22.67
